createdAt,value
2022-10-01T00:02:20.000Z,971.4
2022-10-01T00:32:23.000Z,971.6
2022-10-01T01:02:27.000Z,971.6
2022-10-01T01:32:29.000Z,971.4
2022-10-01T02:02:29.000Z,970.7
2022-10-01T02:32:36.000Z,970.7
2022-10-01T03:02:40.000Z,970.4
2022-10-01T03:32:45.000Z,970.5
2022-10-01T04:02:48.000Z,970.2
2022-10-01T04:32:51.000Z,970.1
2022-10-01T05:02:55.000Z,969.9
2022-10-01T05:32:55.373Z,969.9
2022-10-01T06:02:57.326Z,969.6
2022-10-01T06:33:00.267Z,969.3
2022-10-01T07:03:04.296Z,969.4
2022-10-01T07:33:06.376Z,969.2
2022-10-01T08:04:24.000Z,969.3
2022-10-01T08:34:27.000Z,969.3
2022-10-01T09:04:33.000Z,969.4
2022-10-01T09:34:34.000Z,969.7
2022-10-01T10:04:37.000Z,969.8
2022-10-01T10:34:44.000Z,970.1
2022-10-01T11:04:46.000Z,970.3
2022-10-01T11:34:48.000Z,970.1
2022-10-01T12:04:57.000Z,970.2
2022-10-01T12:35:02.000Z,970.2
2022-10-01T13:05:12.000Z,970.3
2022-10-01T13:35:13.000Z,970.4
2022-10-01T14:05:24.000Z,970.5
2022-10-01T14:35:25.000Z,970.7
2022-10-01T15:05:35.000Z,970.7
2022-10-01T15:35:40.000Z,971.0
2022-10-01T16:05:50.000Z,971.2
2022-10-01T16:35:57.053Z,971.7
2022-10-01T17:05:58.000Z,972.0
2022-10-01T17:36:03.017Z,972.3
2022-10-01T18:06:06.056Z,972.9
2022-10-01T18:36:06.000Z,973.2
2022-10-01T19:06:09.000Z,974.1
2022-10-01T19:36:13.000Z,974.6
2022-10-01T20:06:15.000Z,974.8
2022-10-01T20:36:20.000Z,975.5
2022-10-01T21:06:25.000Z,975.5
2022-10-01T21:36:29.000Z,975.9
2022-10-01T22:06:31.199Z,976.2
2022-10-01T22:36:39.000Z,976.4
2022-10-01T23:06:42.385Z,976.7
2022-10-01T23:36:43.000Z,977.0
